CMP9412 SKBQ-SKRG
Flight info
| Callsign | CMP9412 |
|---|---|
| Flight time | N/A |
| Altitude | 34000 |
| Route | VOVLU2D VOVLU DCT MGN DCT SERVO DCT BIVIG BIVIG3C |
| Aircraft | B38M/M-SDE1FGHILORVWXY/HB1 |
Departure
| Time | 2026-04-24 14:57 |
|---|---|
| Airport | Ernesto Cortissoz International Airport (SKBQ) |
Arrival
| Time | N/A |
|---|---|
| Airport | Jose Maria Córdova International Airport (SKRG) |
| Time | Latitude | Longitude | Altitude | Speed | Heading |
|---|---|---|---|---|---|
| 2026-04-24 14:18 | 10.88608 | -74.77789 | 98 ft | 0 kts | 131° |
| 2026-04-24 14:45 | 10.88613 | -74.77794 | 97 ft | 2 kts | 131° |
| 2026-04-24 14:45 | 10.88624 | -74.77807 | 98 ft | 2 kts | 131° |
| 2026-04-24 14:45 | 10.88634 | -74.77819 | 97 ft | 2 kts | 126° |
| 2026-04-24 14:45 | 10.88647 | -74.77828 | 97 ft | 2 kts | 197° |
| 2026-04-24 14:46 | 10.88658 | -74.77818 | 98 ft | 2 kts | 234° |
| 2026-04-24 14:46 | 10.88670 | -74.77807 | 97 ft | 2 kts | 218° |
| 2026-04-24 14:46 | 10.88670 | -74.77806 | 97 ft | 0 kts | 218° |
| 2026-04-24 14:50 | 10.88656 | -74.77818 | 98 ft | 4 kts | 219° |
| 2026-04-24 14:50 | 10.88627 | -74.77843 | 97 ft | 7 kts | 220° |
| 2026-04-24 14:50 | 10.88586 | -74.77878 | 97 ft | 8 kts | 218° |
| 2026-04-24 14:51 | 10.88567 | -74.77919 | 97 ft | 7 kts | 284° |
| 2026-04-24 14:51 | 10.88573 | -74.77958 | 98 ft | 4 kts | 254° |
| 2026-04-24 14:51 | 10.88559 | -74.77978 | 99 ft | 6 kts | 225° |
| 2026-04-24 14:51 | 10.88519 | -74.78012 | 98 ft | 9 kts | 220° |
| 2026-04-24 14:52 | 10.88462 | -74.78061 | 101 ft | 12 kts | 219° |
| 2026-04-24 14:52 | 10.88425 | -74.78127 | 101 ft | 10 kts | 280° |
| 2026-04-24 14:52 | 10.88432 | -74.78208 | 99 ft | 15 kts | 278° |
| 2026-04-24 14:52 | 10.88408 | -74.78314 | 100 ft | 19 kts | 223° |
| 2026-04-24 14:53 | 10.88299 | -74.78405 | 102 ft | 21 kts | 220° |
| 2026-04-24 14:53 | 10.88184 | -74.78504 | 104 ft | 22 kts | 219° |
| 2026-04-24 14:53 | 10.88062 | -74.78609 | 106 ft | 23 kts | 220° |
| 2026-04-24 14:53 | 10.87950 | -74.78703 | 109 ft | 16 kts | 220° |
| 2026-04-24 14:54 | 10.87916 | -74.78773 | 110 ft | 11 kts | 264° |
| 2026-04-24 14:54 | 10.87909 | -74.78860 | 110 ft | 14 kts | 265° |
| 2026-04-24 14:54 | 10.87912 | -74.78941 | 110 ft | 8 kts | 303° |
| 2026-04-24 14:54 | 10.87942 | -74.78958 | 110 ft | 4 kts | 10° |
| 2026-04-24 14:55 | 10.87963 | -74.78946 | 110 ft | 6 kts | 37° |
| 2026-04-24 14:55 | 10.87969 | -74.78942 | 110 ft | 0 kts | 39° |
| 2026-04-24 14:56 | 10.87981 | -74.78932 | 110 ft | 17 kts | 39° |
| 2026-04-24 14:57 | 10.88262 | -74.78691 | 105 ft | 88 kts | 40° |
| 2026-04-24 14:57 | 10.88886 | -74.78154 | 99 ft | 146 kts | 40° |
| 2026-04-24 14:57 | 10.89755 | -74.77401 | 266 ft | 169 kts | 42° |
| 2026-04-24 14:57 | 10.90609 | -74.76618 | 865 ft | 162 kts | 45° |
| 2026-04-24 14:58 | 10.91433 | -74.75829 | 1135 ft | 168 kts | 35° |
| 2026-04-24 14:58 | 10.92077 | -74.75370 | 1307 ft | 173 kts | 37° |
| 2026-04-24 14:58 | 10.93035 | -74.74602 | 1611 ft | 177 kts | 40° |
| 2026-04-24 14:58 | 10.94339 | -74.73484 | 1888 ft | 192 kts | 40° |
| 2026-04-24 14:59 | 10.95114 | -74.72982 | 2010 ft | 201 kts | 16° |
| 2026-04-24 14:59 | 10.96498 | -74.73067 | 2244 ft | 213 kts | 334° |
| 2026-04-24 14:59 | 10.97653 | -74.74076 | 2432 ft | 226 kts | 308° |
| 2026-04-24 14:59 | 10.98638 | -74.75423 | 2814 ft | 246 kts | 304° |
| 2026-04-24 15:00 | 10.99678 | -74.76853 | 3285 ft | 262 kts | 307° |
| 2026-04-24 15:00 | 11.00830 | -74.78338 | 3917 ft | 270 kts | 308° |
| 2026-04-24 15:00 | 11.02014 | -74.79850 | 4650 ft | 275 kts | 307° |
| 2026-04-24 15:00 | 11.03210 | -74.81398 | 5413 ft | 279 kts | 307° |
| 2026-04-24 15:01 | 11.04396 | -74.82943 | 6209 ft | 282 kts | 307° |
| 2026-04-24 15:01 | 11.05620 | -74.84533 | 6913 ft | 286 kts | 306° |
| 2026-04-24 15:01 | 11.06529 | -74.86313 | 7608 ft | 285 kts | 281° |
| 2026-04-24 15:01 | 11.06586 | -74.88322 | 8301 ft | 285 kts | 256° |
| 2026-04-24 15:02 | 11.05791 | -74.90136 | 8993 ft | 286 kts | 231° |
| 2026-04-24 15:02 | 11.04368 | -74.91557 | 9698 ft | 288 kts | 220° |
| 2026-04-24 15:02 | 11.03479 | -74.92318 | 10114 ft | 291 kts | 219° |
| 2026-04-24 15:02 | 11.01900 | -74.93628 | 10603 ft | 301 kts | 219° |
| 2026-04-24 15:03 | 11.00253 | -74.95020 | 11050 ft | 314 kts | 220° |
| 2026-04-24 15:03 | 10.98544 | -74.96497 | 11439 ft | 328 kts | 220° |
| 2026-04-24 15:03 | 10.96774 | -74.98022 | 11932 ft | 337 kts | 220° |
| 2026-04-24 15:03 | 10.94913 | -74.99613 | 11949 ft | 361 kts | 220° |
| 2026-04-24 15:04 | 10.92932 | -75.01304 | 12002 ft | 382 kts | 220° |
| 2026-04-24 15:04 | 10.90869 | -75.03071 | 12057 ft | 401 kts | 220° |
| 2026-04-24 15:04 | 10.88690 | -75.04940 | 12075 ft | 416 kts | 220° |
| 2026-04-24 15:04 | 10.86337 | -75.06620 | 11584 ft | 408 kts | 208° |
| 2026-04-24 15:05 | 10.83730 | -75.07664 | 11116 ft | 399 kts | 195° |
| 2026-04-24 15:05 | 10.81010 | -75.08070 | 10650 ft | 391 kts | 182° |
| 2026-04-24 15:05 | 10.78327 | -75.07857 | 10201 ft | 384 kts | 171° |
| 2026-04-24 15:05 | 10.75742 | -75.07394 | 9998 ft | 381 kts | 171° |
| 2026-04-24 15:06 | 10.73118 | -75.06914 | 9995 ft | 382 kts | 171° |
| 2026-04-24 15:06 | 10.70486 | -75.06440 | 9993 ft | 383 kts | 171° |
| 2026-04-24 15:06 | 10.67887 | -75.05973 | 9993 ft | 383 kts | 170° |
| 2026-04-24 15:06 | 10.65262 | -75.05501 | 9989 ft | 382 kts | 171° |
| 2026-04-24 15:07 | 10.62638 | -75.05030 | 9995 ft | 382 kts | 170° |
| 2026-04-24 15:07 | 10.60011 | -75.04559 | 9995 ft | 382 kts | 171° |
| 2026-04-24 15:07 | 10.57386 | -75.04088 | 9996 ft | 382 kts | 170° |
| 2026-04-24 15:07 | 10.54793 | -75.03623 | 9902 ft | 384 kts | 170° |
| 2026-04-24 15:08 | 10.52161 | -75.03152 | 9438 ft | 379 kts | 170° |
| 2026-04-24 15:08 | 10.49591 | -75.02693 | 8979 ft | 371 kts | 170° |
| 2026-04-24 15:08 | 10.47066 | -75.02293 | 8773 ft | 356 kts | 177° |
| 2026-04-24 15:08 | 10.44709 | -75.02586 | 8780 ft | 337 kts | 197° |
| 2026-04-24 15:09 | 10.42565 | -75.03408 | 8775 ft | 321 kts | 203° |
| 2026-04-24 15:09 | 10.40512 | -75.04287 | 8463 ft | 321 kts | 201° |
| 2026-04-24 15:09 | 10.38418 | -75.04983 | 8026 ft | 320 kts | 193° |
| 2026-04-24 15:09 | 10.36224 | -75.05376 | 7581 ft | 319 kts | 187° |
| 2026-04-24 15:10 | 10.34011 | -75.05660 | 7152 ft | 319 kts | 188° |
| 2026-04-24 15:10 | 10.31819 | -75.06036 | 6739 ft | 319 kts | 191° |
| 2026-04-24 15:10 | 10.29662 | -75.06472 | 6325 ft | 318 kts | 191° |
| 2026-04-24 15:10 | 10.27482 | -75.06889 | 5879 ft | 317 kts | 191° |
| 2026-04-24 15:11 | 10.25303 | -75.07275 | 5441 ft | 316 kts | 190° |
| 2026-04-24 15:11 | 10.23141 | -75.07662 | 5009 ft | 315 kts | 190° |
| 2026-04-24 15:11 | 10.20976 | -75.08062 | 4578 ft | 315 kts | 191° |
| 2026-04-24 15:11 | 10.18872 | -75.08450 | 4463 ft | 303 kts | 191° |
| 2026-04-24 15:12 | 10.16806 | -75.08828 | 4582 ft | 304 kts | 191° |
| 2026-04-24 15:12 | 10.12672 | -75.09584 | 4828 ft | 302 kts | 191° |
| 2026-04-24 15:12 | 10.10595 | -75.09964 | 4947 ft | 303 kts | 191° |
| 2026-04-24 15:13 | 10.08539 | -75.10340 | 4977 ft | 303 kts | 191° |
| 2026-04-24 15:13 | 10.06474 | -75.10717 | 4982 ft | 303 kts | 191° |
| 2026-04-24 15:13 | 10.04388 | -75.11099 | 4981 ft | 303 kts | 191° |
| 2026-04-24 15:13 | 10.02316 | -75.11478 | 4980 ft | 303 kts | 191° |
| 2026-04-24 15:14 | 10.00276 | -75.11851 | 4977 ft | 290 kts | 191° |
| 2026-04-24 15:14 | 9.98334 | -75.12205 | 4978 ft | 276 kts | 191° |
| 2026-04-24 15:14 | 9.96466 | -75.12546 | 4982 ft | 270 kts | 191° |
| 2026-04-24 15:14 | 9.94604 | -75.12888 | 4981 ft | 271 kts | 191° |
| 2026-04-24 15:15 | 9.92779 | -75.13221 | 4989 ft | 269 kts | 191° |
| 2026-04-24 15:15 | 9.90926 | -75.13560 | 4986 ft | 271 kts | 191° |
| 2026-04-24 15:15 | 9.89075 | -75.13897 | 4986 ft | 270 kts | 191° |
| 2026-04-24 15:15 | 9.87220 | -75.14237 | 4985 ft | 271 kts | 191° |
| 2026-04-24 15:16 | 9.85365 | -75.14575 | 4989 ft | 273 kts | 192° |
| 2026-04-24 15:16 | 9.83492 | -75.14918 | 4991 ft | 272 kts | 191° |
| 2026-04-24 15:16 | 9.81649 | -75.15254 | 4989 ft | 272 kts | 191° |
| 2026-04-24 15:16 | 9.79782 | -75.15595 | 4988 ft | 272 kts | 192° |
| 2026-04-24 15:17 | 9.77920 | -75.15935 | 4990 ft | 272 kts | 192° |
| 2026-04-24 15:17 | 9.76050 | -75.16276 | 4990 ft | 271 kts | 192° |
| 2026-04-24 15:17 | 9.74205 | -75.16613 | 4993 ft | 272 kts | 191° |
| 2026-04-24 15:17 | 9.72315 | -75.16663 | 5006 ft | 274 kts | 169° |
| 2026-04-24 15:18 | 9.70506 | -75.16026 | 5004 ft | 277 kts | 156° |
| 2026-04-24 15:18 | 9.68728 | -75.15313 | 5022 ft | 275 kts | 172° |
| 2026-04-24 15:18 | 9.66844 | -75.15405 | 5008 ft | 271 kts | 200° |
| 2026-04-24 15:18 | 9.65254 | -75.16380 | 5012 ft | 269 kts | 228° |
| 2026-04-24 15:19 | 9.64331 | -75.17983 | 5023 ft | 267 kts | 256° |
| 2026-04-24 15:19 | 9.64280 | -75.19864 | 5014 ft | 271 kts | 284° |
| 2026-04-24 15:19 | 9.65129 | -75.21552 | 5031 ft | 271 kts | 312° |
| 2026-04-24 15:19 | 9.66675 | -75.22635 | 5004 ft | 273 kts | 340° |
| 2026-04-24 15:20 | 9.68556 | -75.22848 | 5021 ft | 278 kts | 8° |
| 2026-04-24 15:20 | 9.70349 | -75.22139 | 5014 ft | 279 kts | 36° |
| 2026-04-24 15:20 | 9.71649 | -75.20713 | 5007 ft | 280 kts | 55° |
| 2026-04-24 15:20 | 9.72741 | -75.19060 | 5003 ft | 281 kts | 54° |
| 2026-04-24 15:21 | 9.73937 | -75.17490 | 5007 ft | 279 kts | 51° |
| 2026-04-24 15:21 | 9.74795 | -75.15734 | 5003 ft | 283 kts | 79° |
| 2026-04-24 15:21 | 9.74774 | -75.13784 | 5019 ft | 279 kts | 107° |
| 2026-04-24 15:21 | 9.73870 | -75.12063 | 5006 ft | 279 kts | 135° |
| 2026-04-24 15:22 | 9.72287 | -75.10971 | 5023 ft | 275 kts | 163° |
| 2026-04-24 15:22 | 9.70433 | -75.10757 | 5026 ft | 272 kts | 190° |
| 2026-04-24 15:22 | 9.68690 | -75.11457 | 5008 ft | 270 kts | 219° |
| 2026-04-24 15:23 | 9.66419 | -75.14434 | 5003 ft | 268 kts | 238° |
| 2026-04-24 15:23 | 9.65969 | -75.18067 | 5027 ft | 266 kts | 293° |
| 2026-04-24 15:23 | 9.67036 | -75.19591 | 5007 ft | 271 kts | 320° |
| 2026-04-24 15:24 | 9.72193 | -75.19424 | 5020 ft | 270 kts | 46° |
| 2026-04-24 15:25 | 9.74365 | -75.17209 | 5008 ft | 269 kts | 23° |
| 2026-04-24 15:25 | 9.78621 | -75.16717 | 5006 ft | 266 kts | 2° |
| 2026-04-24 15:26 | 9.83987 | -75.15328 | 5005 ft | 266 kts | 15° |
| 2026-04-24 15:27 | 9.89376 | -75.13845 | 5001 ft | 267 kts | 15° |
| 2026-04-24 15:27 | 9.94780 | -75.12327 | 4996 ft | 268 kts | 14° |
| 2026-04-24 15:28 | 10.01974 | -75.10313 | 4993 ft | 268 kts | 14° |
| 2026-04-24 15:29 | 10.05551 | -75.09312 | 4992 ft | 268 kts | 14° |
| 2026-04-24 15:30 | 10.10953 | -75.07799 | 4990 ft | 269 kts | 15° |
| 2026-04-24 15:31 | 10.18153 | -75.05781 | 4994 ft | 269 kts | 15° |
| 2026-04-24 15:32 | 10.25362 | -75.03763 | 4981 ft | 269 kts | 15° |
| 2026-04-24 15:33 | 10.32603 | -75.01729 | 4984 ft | 270 kts | 15° |
| 2026-04-24 15:33 | 10.38016 | -75.00211 | 4989 ft | 271 kts | 15° |
| 2026-04-24 15:34 | 10.41644 | -74.99200 | 4987 ft | 270 kts | 13° |
| 2026-04-24 15:35 | 10.47080 | -74.97769 | 4993 ft | 271 kts | 14° |
| 2026-04-24 15:35 | 10.50734 | -74.96847 | 4992 ft | 271 kts | 14° |
| 2026-04-24 15:35 | 10.52540 | -74.96381 | 4995 ft | 270 kts | 14° |
| 2026-04-24 15:36 | 10.54366 | -74.95905 | 4996 ft | 269 kts | 14° |
| 2026-04-24 15:36 | 10.57995 | -74.94984 | 4991 ft | 269 kts | 10° |
| 2026-04-24 15:36 | 10.59857 | -74.94794 | 4996 ft | 269 kts | 359° |
| 2026-04-24 15:37 | 10.61729 | -74.94960 | 4939 ft | 271 kts | 348° |
| 2026-04-24 15:37 | 10.63569 | -74.95374 | 4742 ft | 269 kts | 347° |
| 2026-04-24 15:37 | 10.64773 | -74.95602 | 4697 ft | 264 kts | 348° |
| 2026-04-24 15:37 | 10.67131 | -74.95988 | 4693 ft | 256 kts | 356° |
| 2026-04-24 15:38 | 10.68914 | -74.95849 | 4680 ft | 258 kts | 14° |
| 2026-04-24 15:38 | 10.70499 | -74.95008 | 4491 ft | 258 kts | 44° |
| 2026-04-24 15:38 | 10.71609 | -74.93607 | 4298 ft | 250 kts | 56° |
| 2026-04-24 15:38 | 10.72567 | -74.92245 | 4022 ft | 230 kts | 52° |
| 2026-04-24 15:39 | 10.73646 | -74.91118 | 3715 ft | 215 kts | 41° |
| 2026-04-24 15:39 | 10.74763 | -74.90220 | 3417 ft | 194 kts | 39° |
| 2026-04-24 15:39 | 10.75797 | -74.89399 | 3163 ft | 186 kts | 40° |
| 2026-04-24 15:39 | 10.76781 | -74.88579 | 3006 ft | 181 kts | 41° |
| 2026-04-24 15:40 | 10.77781 | -74.87737 | 2685 ft | 183 kts | 40° |
| 2026-04-24 15:40 | 10.78328 | -74.87281 | 2535 ft | 174 kts | 41° |
| 2026-04-24 15:40 | 10.78749 | -74.86923 | 2430 ft | 176 kts | 42° |
| 2026-04-24 15:41 | 10.79609 | -74.86145 | 2172 ft | 154 kts | 42° |
| 2026-04-24 15:41 | 10.80415 | -74.85434 | 1973 ft | 153 kts | 41° |
| 2026-04-24 15:41 | 10.81213 | -74.84751 | 1765 ft | 151 kts | 41° |
| 2026-04-24 15:41 | 10.81997 | -74.84077 | 1569 ft | 148 kts | 41° |
| 2026-04-24 15:42 | 10.82790 | -74.83398 | 1365 ft | 145 kts | 41° |
| 2026-04-24 15:42 | 10.83573 | -74.82722 | 1234 ft | 149 kts | 41° |
| 2026-04-24 15:42 | 10.84352 | -74.82055 | 1022 ft | 147 kts | 42° |
| 2026-04-24 15:42 | 10.85128 | -74.81388 | 834 ft | 146 kts | 41° |
| 2026-04-24 15:43 | 10.85907 | -74.80719 | 657 ft | 145 kts | 41° |
| 2026-04-24 15:43 | 10.86681 | -74.80056 | 435 ft | 146 kts | 41° |
| 2026-04-24 15:43 | 10.87443 | -74.79409 | 304 ft | 147 kts | 43° |
| 2026-04-24 15:43 | 10.88203 | -74.78749 | 127 ft | 138 kts | 43° |
| 2026-04-24 15:44 | 10.88816 | -74.78213 | 100 ft | 89 kts | 40° |
| 2026-04-24 15:44 | 10.89169 | -74.77911 | 94 ft | 48 kts | 40° |
| 2026-04-24 15:44 | 10.89329 | -74.77773 | 89 ft | 10 kts | 40° |
| 2026-04-24 15:44 | 10.89365 | -74.77725 | 89 ft | 7 kts | 67° |
| 2026-04-24 15:45 | 10.89373 | -74.77687 | 87 ft | 5 kts | 82° |
| 2026-04-24 15:45 | 10.89377 | -74.77625 | 88 ft | 12 kts | 91° |
| 2026-04-24 15:45 | 10.89329 | -74.77552 | 84 ft | 13 kts | 159° |
| 2026-04-24 15:45 | 10.89246 | -74.77520 | 87 ft | 12 kts | 160° |
| 2026-04-24 15:46 | 10.89170 | -74.77495 | 93 ft | 10 kts | 168° |
| 2026-04-24 15:46 | 10.89111 | -74.77507 | 95 ft | 7 kts | 209° |
| 2026-04-24 15:46 | 10.89080 | -74.77530 | 95 ft | 4 kts | 217° |
| 2026-04-24 15:46 | 10.89058 | -74.77549 | 99 ft | 5 kts | 220° |
| 2026-04-24 15:47 | 10.89027 | -74.77576 | 98 ft | 7 kts | 220° |
| 2026-04-24 15:47 | 10.88999 | -74.77601 | 98 ft | 9 kts | 220° |
| 2026-04-24 15:47 | 10.88939 | -74.77653 | 97 ft | 14 kts | 220° |
| 2026-04-24 15:47 | 10.88854 | -74.77726 | 97 ft | 18 kts | 220° |
| 2026-04-24 15:48 | 10.88789 | -74.77782 | 99 ft | 11 kts | 220° |
| 2026-04-24 15:48 | 10.88732 | -74.77810 | 98 ft | 8 kts | 161° |
| 2026-04-24 15:48 | 10.88687 | -74.77769 | 97 ft | 8 kts | 129° |
| 2026-04-24 15:48 | 10.88667 | -74.77745 | 97 ft | 0 kts | 130° |
| 2026-04-24 15:49 | 10.88665 | -74.77742 | 97 ft | 1 kts | 130° |
| 2026-04-24 15:49 | 10.88664 | -74.77741 | 97 ft | 0 kts | 130° |